Latest Weather Observations for Minlaton Airport

IDS60801

Issued at 11:02 am CDT Sunday 1 March 2015 (issued every 30 minutes, with the page automatically refreshed every 10 minutes)

About weather observations | Map of weather stations | Latest weather observations for SA | Other Formats
Station Details ID: 022031 Name: MINLATON AERO Lat: -34.75 Lon: 137.53 Height: 32.0 m
Data from the previous 72 hours. | See also: Recent months at Minlaton Airport
Date/Time
CDT
Temp
°C
App
Temp
°C
Dew
Point
Rel
Hum
%
Delta-T
°C
Wind Press
QNH
hPa
Press
MSL
hPa
Rain
since 9 am
mm
Dir
 
Spd
km/h
Gust
km/h
Spd
kts
Gust
kts
01/11:00am 19.6 14.3 9.8 53 5.2 S 28 39 15 21 1017.9 1017.8 0.0
01/10:30am 19.2 13.9 9.7 54 5.0 S 28 43 15 23 1017.8 1017.7 0.0
01/10:00am 19.0 14.0 9.5 54 5.0 S 26 35 14 19 1017.4 1017.3 0.0
01/09:30am 18.7 13.3 9.5 55 4.9 S 28 37 15 20 1017.0 1016.9 0.0
01/09:00am 18.4 14.1 9.2 55 4.8 S 22 30 12 16 1016.7 1016.6 0.2
01/08:30am 17.3 12.4 8.4 56 4.6 S 24 33 13 18 1016.5 1016.4 0.2
01/08:00am 16.9 13.0 9.6 62 3.8 S 20 24 11 13 1016.1 1016.0 0.2
01/07:30am 15.7 12.7 10.5 71 2.7 S 17 22 9 12 1015.7 1015.6 0.2
01/07:00am 13.3 11.0 9.0 75 2.2 SSE 11 13 6 7 1015.2 1015.1 0.2
01/06:30am 12.0 9.8 7.7 75 2.1 S 9 9 5 5 1014.8 1014.7 0.2
01/06:00am 9.9 6.7 5.3 73 2.1 S 11 11 6 6 1014.4 1014.3 0.2
01/05:30am 10.9 7.8 5.4 69 2.5 S 11 13 6 7 1014.1 1014.0 0.2
01/05:00am 13.5 9.8 6.4 62 3.4 S 15 19 8 10 1013.8 1013.7 0.2
01/04:30am 15.3 10.0 6.8 57 4.2 SSW 24 32 13 17 1013.6 1013.5 0.2
01/04:00am 15.9 9.8 6.6 54 4.6 SSW 28 33 15 18 1013.4 1013.3 0.2
01/03:30am 16.3 10.8 7.5 56 4.4 SSW 26 33 14 18 1013.3 1013.2 0.2
01/03:00am 16.2 11.9 9.2 63 3.6 SSW 22 32 12 17 1013.2 1013.1 0.2
01/02:30am 14.0 10.7 9.6 75 2.3 SSW 17 20 9 11 1013.2 1013.1 0.2
01/02:00am 14.1 11.0 8.9 71 2.6 SSW 15 19 8 10 1013.2 1013.1 0.2
01/01:30am 14.8 11.5 9.4 70 2.8 SSW 17 20 9 11 1013.2 1013.1 0.2
01/01:00am 15.7 12.1 10.5 71 2.8 SSW 20 26 11 14 1013.2 1013.1 0.2
01/12:30am 16.3 12.0 10.8 70 2.9 SSW 24 30 13 16 1013.2 1013.1 0.2
01/12:00am 16.8 13.1 11.5 71 2.9 SSW 22 30 12 16 1013.0 1012.9 0.2
 
Date/Time
CDT
Temp
°C
App
Temp
°C
Dew
Point
Rel
Hum
%
Delta-T
°C
Wind Press
QNH
hPa
Press
MSL
hPa
Rain
since 9 am
mm
Dir
 
Spd
km/h
Gust
km/h
Spd
kts
Gust
kts
28/11:30pm 17.3 12.9 11.8 70 3.0 SSW 26 33 14 18 1013.0 1012.9 0.2
28/11:00pm 17.2 14.5 12.9 76 2.4 SSW 19 26 10 14 1012.9 1012.8 0.2
28/10:30pm 15.5 13.5 11.5 77 2.2 SSW 13 17 7 9 1012.7 1012.6 0.2
28/10:00pm 16.0 14.1 11.8 76 2.3 S 13 15 7 8 1012.6 1012.5 0.2
28/09:30pm 17.5 15.0 12.2 71 2.9 SSW 17 20 9 11 1012.0 1011.9 0.2
28/09:00pm 18.4 15.2 11.9 66 3.6 SSW 20 28 11 15 1011.3 1011.2 0.2
28/08:30pm 19.3 15.9 12.6 65 3.8 SSW 22 30 12 16 1010.6 1010.5 0.2
28/08:00pm 20.2 16.0 13.6 66 3.8 SSW 28 39 15 21 1010.0 1009.9 0.2
28/07:30pm 21.0 17.0 15.1 69 3.5 SSW 30 39 16 21 1009.3 1009.2 0.2
28/07:00pm 21.5 16.9 15.1 67 3.8 S 33 43 18 23 1008.7 1008.6 0.2
28/06:30pm 22.2 17.3 15.3 65 4.1 SSW 35 43 19 23 1008.2 1008.1 0.2
28/06:00pm 22.2 17.3 15.3 65 4.1 SSW 35 46 19 25 1007.8 1007.7 0.2
28/05:30pm 23.4 18.5 15.2 60 4.9 SSW 35 48 19 26 1007.2 1007.1 0.2
28/05:00pm 24.3 19.5 15.5 58 5.3 SSW 35 46 19 25 1006.8 1006.7 0.2
28/04:30pm 26.2 21.3 15.3 51 6.6 SSW 35 48 19 26 1006.2 1006.1 0.2
28/04:29pm 26.5 21.1 14.9 49 7.0 SSW 37 46 20 25 1006.2 1006.1 0.2
28/04:00pm 28.5 22.8 15.1 44 8.2 SW 39 50 21 27 1005.5 1005.4 0.2
28/03:30pm 28.4 22.2 12.7 38 9.2 SW 37 48 20 26 1005.4 1005.3 0.2
28/03:00pm 28.6 21.5 13.3 39 9.1 SW 43 52 23 28 1004.9 1004.8 0.2
28/02:30pm 28.3 23.9 15.2 44 8.0 SW 32 41 17 22 1005.0 1004.9 0.2
28/02:00pm 25.5 23.1 17.4 61 5.1 SW 26 39 14 21 1005.3 1005.2 0.2
28/01:30pm 24.7 22.2 18.9 70 3.7 SSW 30 39 16 21 1004.8 1004.7 0.2
28/01:00pm 27.4 24.9 16.1 50 7.0 WSW 24 32 13 17 1004.5 1004.3 0.0
28/12:30pm 26.8 25.0 16.1 52 6.6 W 20 26 11 14 1004.5 1004.3 0.0
28/12:00pm 28.3 24.6 13.8 41 8.7 W 26 33 14 18 1004.9 1004.8 0.0
28/11:30am 27.7 24.9 14.3 43 8.1 W 22 32 12 17 1005.1 1005.0 0.0
28/11:00am 27.2 23.1 16.5 52 6.6 WNW 33 41 18 22 1004.9 1004.8 0.0
28/10:30am 28.9 25.3 14.3 40 8.8 NW 26 32 14 17 1004.5 1004.3 0.0
28/10:00am 28.5 25.5 15.8 46 7.8 NNW 26 33 14 18 1004.4 1004.2 0.0
28/09:30am 26.2 23.6 15.9 53 6.3 NNW 24 32 13 17 1004.2 1004.0 0.0
28/09:00am 25.4 24.1 15.7 55 5.9 NNW 17 20 9 11 1004.2 1004.0 0.0
28/08:30am 23.7 23.5 14.7 57 5.4 NW 9 15 5 8 1003.9 1003.7 0.0
28/08:00am 22.1 21.9 13.7 59 4.9 NNW 7 13 4 7 1003.7 1003.5 0.0
28/07:30am 19.8 18.1 12.6 63 4.1 N 13 17 7 9 1003.3 1003.1 0.0
28/07:00am 20.0 18.9 13.2 65 3.9 NNE 11 15 6 8 1003.1 1002.9 0.0
28/06:30am 20.2 18.5 12.4 61 4.4 N 13 17 7 9 1002.9 1002.7 0.0
28/06:00am 22.1 19.1 12.1 53 5.7 NNE 19 24 10 13 1003.0 1002.8 0.0
28/05:30am 23.7 20.0 12.7 50 6.3 NE 24 32 13 17 1002.6 1002.4 0.0
28/05:00am 24.0 19.1 12.6 49 6.5 NE 30 35 16 19 1002.1 1001.9 0.0
28/04:30am 24.1 20.3 12.4 48 6.7 ENE 24 33 13 18 1002.3 1002.1 0.0
28/04:00am 24.4 19.1 12.4 47 6.9 ENE 32 39 17 21 1002.3 1002.1 0.0
28/03:30am 24.0 18.6 12.9 50 6.4 ENE 33 44 18 24 1002.5 1002.3 0.0
28/03:00am 24.1 19.0 13.6 52 6.2 ENE 33 41 18 22 1002.9 1002.7 0.0
28/02:30am 24.2 19.1 13.7 52 6.2 ENE 33 41 18 22 1003.3 1003.1 0.0
28/02:00am 24.6 19.4 13.5 50 6.5 ENE 33 39 18 21 1003.9 1003.7 0.0
28/01:30am 24.6 19.3 13.2 49 6.7 E 33 39 18 21 1004.3 1004.1 0.0
28/01:00am 24.5 20.3 13.4 50 6.5 E 28 32 15 17 1005.0 1004.9 0.0
28/12:30am 24.0 20.7 14.1 54 5.8 E 24 30 13 16 1005.8 1005.7 0.0
28/12:00am 23.3 19.4 15.4 61 4.8 E 30 37 16 20 1006.0 1005.9 0.0
 
Date/Time
CDT
Temp
°C
App
Temp
°C
Dew
Point
Rel
Hum
%
Delta-T
°C
Wind Press
QNH
hPa
Press
MSL
hPa
Rain
since 9 am
mm
Dir
 
Spd
km/h
Gust
km/h
Spd
kts
Gust
kts
27/11:49pm 24.1 21.9 14.8 56 5.5 E 20 33 11 18 1006.5 1006.4 0.0
27/11:30pm 24.3 24.4 13.8 52 6.2 ESE 6 9 3 5 1008.0 1007.9 0.0
27/11:00pm 24.4 22.9 13.0 49 6.6 SE 13 15 7 8 1008.3 1008.2 0.0
27/10:30pm 25.5 23.8 12.4 44 7.6 SE 13 20 7 11 1008.2 1008.1 0.0
27/10:00pm 25.6 21.9 12.8 45 7.4 ESE 24 32 13 17 1007.7 1007.6 0.0
27/09:30pm 25.4 21.0 12.9 45 7.3 ESE 28 32 15 17 1007.6 1007.5 0.0
27/09:00pm 24.7 21.8 13.0 48 6.8 ESE 20 24 11 13 1007.5 1007.4 0.0
27/08:30pm 25.0 22.6 12.6 46 7.2 ESE 17 20 9 11 1007.6 1007.5 0.0
27/08:00pm 24.9 22.9 13.8 50 6.5 S 17 20 9 11 1007.3 1007.2 0.0
27/07:30pm 26.2 25.3 12.6 43 7.9 WNW 9 15 5 8 1007.5 1007.4 0.0
27/07:00pm 27.3 24.1 11.3 37 9.1 SE 19 28 10 15 1006.1 1006.0 0.0
27/06:30pm 28.9 24.6 10.6 32 10.4 ESE 24 30 13 16 1005.6 1005.5 0.0
27/06:00pm 30.3 27.0 10.8 30 11.2 ESE 19 28 10 15 1005.2 1005.1 0.0
27/05:30pm 31.7 27.0 9.3 25 12.7 SE 24 30 13 16 1005.1 1005.0 0.0
27/05:00pm 30.9 28.1 8.6 25 12.4 S 13 17 7 9 1005.4 1005.3 0.0
27/04:30pm 29.0 24.7 10.6 32 10.5 SW 24 28 13 15 1005.8 1005.7 0.0
27/04:00pm 33.6 31.0 6.0 18 14.9 NW 9 11 5 6 1005.7 1005.6 0.0
27/03:30pm 33.3 30.3 5.8 18 14.8 NNW 11 17 6 9 1005.9 1005.8 0.0
27/03:00pm 32.4 29.5 8.0 22 13.6 NNW 13 17 7 9 1006.5 1006.4 0.0
27/02:30pm 32.4 28.7 8.0 22 13.6 NNW 17 22 9 12 1006.9 1006.8 0.0
27/02:00pm 31.8 28.2 9.9 26 12.5 NNW 19 24 10 13 1007.2 1007.1 0.0
27/01:30pm 31.4 27.7 9.6 26 12.4 NW 19 24 10 13 1007.5 1007.4 0.0
27/01:00pm 31.1 28.2 11.0 29 11.6 W 17 24 9 13 1008.0 1007.9 0.0
27/12:30pm 31.0 27.7 10.9 29 11.6 NW 19 22 10 12 1008.2 1008.1 0.0
27/12:00pm 31.4 29.1 11.7 29 11.5 WNW 15 20 8 11 1008.6 1008.5 0.0
27/11:30am 31.2 29.1 12.5 31 11.1 W 15 20 8 11 1009.0 1008.9 0.0
27/11:00am 30.5 29.3 12.9 34 10.5 WNW 11 15 6 8 1009.2 1009.1 0.0
27/10:30am 30.2 28.8 12.1 32 10.6 WNW 11 15 6 8 1009.4 1009.3 0.0
27/10:00am 29.6 28.7 11.2 32 10.6 N 7 13 4 7 1009.4 1009.3 0.0
27/09:30am 28.0 26.4 12.8 39 8.9 N 13 17 7 9 1009.5 1009.4 0.0
27/09:00am 25.6 23.9 12.4 43 7.6 NNE 13 17 7 9 1009.5 1009.4 0.0
27/08:30am 23.5 21.5 13.9 55 5.6 ENE 17 19 9 10 1009.3 1009.2 0.0
27/08:00am 20.8 18.3 14.0 65 3.9 E 20 24 11 13 1009.3 1009.2 0.0
27/07:30am 19.1 15.5 13.1 68 3.4 E 24 26 13 14 1009.0 1008.9 0.0
27/07:00am 18.6 15.2 12.6 68 3.4 E 22 26 12 14 1008.8 1008.7 0.0
27/06:30am 18.9 15.5 12.4 66 3.6 E 22 26 12 14 1008.7 1008.6 0.0
27/06:00am 18.7 15.5 13.1 70 3.2 E 22 26 12 14 1008.5 1008.4 0.0
27/05:30am 18.9 15.9 13.7 72 3.0 E 22 24 12 13 1008.6 1008.5 0.0
27/05:00am 19.1 16.1 13.7 71 3.1 E 22 26 12 14 1008.4 1008.3 0.0
27/04:30am 19.0 16.4 13.8 72 3.0 ESE 20 28 11 15 1008.5 1008.4 0.0
27/04:00am 18.5 17.6 14.8 79 2.2 SE 13 15 7 8 1008.9 1008.8 0.0
27/03:30am 18.5 17.5 14.6 78 2.3 SE 13 17 7 9 1009.0 1008.9 0.0
27/03:00am 18.9 16.8 14.6 76 2.5 ESE 19 20 10 11 1009.3 1009.2 0.0
27/02:30am 19.2 16.7 14.0 72 3.0 SE 20 26 11 14 1009.4 1009.3 0.0
27/02:00am 19.6 17.0 13.8 69 3.3 SE 20 24 11 13 1009.9 1009.8 0.0
27/01:30am 18.7 17.6 14.2 75 2.6 SSE 13 15 7 8 1010.5 1010.4 0.0
27/01:00am 18.9 18.2 14.4 75 2.6 SE 11 15 6 8 1010.6 1010.5 0.0
27/12:30am 19.0 17.7 13.6 71 3.1 SSE 13 15 7 8 1010.9 1010.8 0.0
27/12:00am 19.6 18.2 13.3 67 3.6 ESE 13 17 7 9 1011.0 1010.9 0.0
 
Date/Time
CDT
Temp
°C
App
Temp
°C
Dew
Point
Rel
Hum
%
Delta-T
°C
Wind Press
QNH
hPa
Press
MSL
hPa
Rain
since 9 am
mm
Dir
 
Spd
km/h
Gust
km/h
Spd
kts
Gust
kts
26/11:30pm 20.3 18.1 13.3 64 4.0 SE 17 20 9 11 1011.2 1011.1 0.0
26/11:00pm 20.5 18.4 12.5 60 4.5 ESE 15 17 8 9 1011.4 1011.3 0.0
26/10:30pm 20.5 17.7 10.0 51 5.7 SE 15 17 8 9 1011.5 1011.4 0.0
26/10:00pm 20.3 16.4 7.0 42 6.8 SSE 17 19 9 10 1011.5 1011.4 0.0
26/09:30pm 20.4 16.7 6.4 40 7.0 SSE 15 17 8 9 1011.5 1011.4 0.0
26/09:00pm 22.2 18.8 6.0 35 8.2 SSE 13 15 7 8 1011.1 1011.0 0.0
26/08:30pm 23.1 19.0 6.0 33 8.7 SSE 17 17 9 9 1010.9 1010.8 0.0
26/08:00pm 25.2 21.7 7.3 32 9.4 SSW 15 19 8 10 1010.8 1010.7 0.0
26/07:30pm 26.4 23.3 8.8 33 9.6 SW 15 20 8 11 1010.6 1010.5 0.0
26/07:00pm 27.4 24.4 9.3 32 10.0 SW 15 17 8 9 1010.3 1010.2 0.0
26/06:30pm 27.1 24.6 11.2 37 9.1 SW 15 17 8 9 1010.1 1010.0 0.0
26/06:00pm 28.0 24.7 11.5 35 9.5 WSW 20 22 11 12 1009.9 1009.8 0.0
26/05:30pm 29.9 26.5 11.4 32 10.7 WSW 20 26 11 14 1009.9 1009.8 0.0
26/05:00pm 28.5 24.7 12.4 37 9.4 WSW 24 28 13 15 1010.1 1010.0 0.0
26/04:30pm 28.4 24.3 10.1 32 10.3 WSW 22 30 12 16 1010.3 1010.2 0.0
26/04:00pm 29.3 25.8 10.9 32 10.5 WSW 20 26 11 14 1010.3 1010.2 0.0
26/03:30pm 27.9 23.2 9.2 31 10.3 WSW 24 28 13 15 1010.6 1010.5 0.0
26/03:00pm 29.1 23.7 8.2 27 11.4 W 26 32 14 17 1010.9 1010.8 0.0
26/02:30pm 29.4 24.1 4.8 21 12.7 WSW 22 30 12 16 1011.1 1011.0 0.0
26/02:00pm 28.7 23.2 4.2 21 12.5 W 22 28 12 15 1011.5 1011.4 0.0
26/01:30pm 28.2 24.2 9.0 30 10.6 W 20 28 11 15 1011.7 1011.6 0.0
26/01:00pm 26.6 21.8 9.0 33 9.6 WSW 24 30 13 16 1012.3 1012.2 0.0
26/12:30pm 26.9 23.4 11.0 37 9.0 WNW 20 26 11 14 1012.4 1012.3 0.0
26/12:00pm 26.6 23.7 9.5 34 9.4 W 15 24 8 13 1012.6 1012.5 0.0
26/11:30am 27.3 24.3 0.9 18 12.6 E 6 13 3 7 1012.9 1012.8 0.0

Other Formats:

Comma delimited format used in spreadsheet applications
http://www.bom.gov.au/fwo/IDS60801/IDS60801.95659.axf

JavaScript Object Notation format (JSON) in row-major order
http://www.bom.gov.au/fwo/IDS60801/IDS60801.95659.json